Time,TemperatureF,DewpointF,PressureIn,WindDirection,WindDirectionDegrees,WindSpeedMPH,WindSpeedGustMPH,Humidity,HourlyPrecipIn,Conditions,Clouds,dailyrainin,SoftwareType,DateUTC
2013-01-13 00:00:00,35.2,29.1,30.05,North,0,0.0,0.0,78,0.00,,,0.00,WUHU216WMR968SP,2013-01-13 05:00:00,
2013-01-13 00:01:00,35.1,29.0,30.05,North,0,0.0,0.0,78,0.00,,,0.00,WUHU216WMR968SP,2013-01-13 05:01:00,
2013-01-13 00:03:00,35.1,29.0,30.05,North,0,0.0,0.0,78,0.00,,,0.00,WUHU216WMR968SP,2013-01-13 05:03:00,
2013-01-13 00:08:00,34.9,28.8,30.05,North,0,0.0,0.0,78,0.00,,,0.00,WUHU216WMR968SP,2013-01-13 05:08:00,
2013-01-13 00:13:00,34.9,28.8,30.05,North,0,0.0,0.0,78,0.00,,,0.00,WUHU216WMR968SP,2013-01-13 05:13:00,
2013-01-13 00:18:00,34.9,28.8,30.05,North,0,0.0,0.0,78,0.00,,,0.00,WUHU216WMR968SP,2013-01-13 05:18:00,
2013-01-13 00:23:00,34.9,28.8,30.05,North,0,0.0,0.0,78,0.00,,,0.00,WUHU216WMR968SP,2013-01-13 05:23:00,
2013-01-13 00:28:00,34.9,28.8,30.05,North,0,0.0,0.0,78,0.00,,,0.00,WUHU216WMR968SP,2013-01-13 05:28:00,
2013-01-13 00:33:00,34.9,28.8,30.05,North,0,0.0,0.0,78,0.00,,,0.00,WUHU216WMR968SP,2013-01-13 05:33:00,
2013-01-13 00:38:00,34.9,28.8,30.05,North,0,0.0,0.0,78,0.00,,,0.00,WUHU216WMR968SP,2013-01-13 05:38:00,
2013-01-13 00:43:00,34.9,29.1,30.05,North,0,0.0,0.0,79,0.00,,,0.00,WUHU216WMR968SP,2013-01-13 05:43:00,
2013-01-13 00:48:00,34.7,28.9,30.05,North,0,0.0,0.0,79,0.00,,,0.00,WUHU216WMR968SP,2013-01-13 05:48:00,
2013-01-13 00:53:00,34.7,28.9,30.05,North,0,0.0,0.0,79,0.00,,,0.00,WUHU216WMR968SP,2013-01-13 05:53:00,
2013-01-13 00:58:00,34.9,29.1,30.05,North,0,0.0,0.0,79,0.00,,,0.00,WUHU216WMR968SP,2013-01-13 05:58:00,
2013-01-13 01:03:00,34.9,29.1,30.05,North,0,0.0,0.0,79,0.00,,,0.00,WUHU216WMR968SP,2013-01-13 06:03:00,
2013-01-13 01:08:00,34.9,29.1,30.05,North,0,0.0,0.0,79,0.00,,,0.00,WUHU216WMR968SP,2013-01-13 06:08:00,
2013-01-13 01:13:00,34.9,29.1,30.05,North,0,0.0,0.0,79,0.00,,,0.00,WUHU216WMR968SP,2013-01-13 06:13:00,
2013-01-13 01:18:00,34.9,29.1,30.05,North,0,0.0,0.0,79,0.00,,,0.00,WUHU216WMR968SP,2013-01-13 06:18:00,
2013-01-13 01:23:00,34.9,29.1,30.05,North,0,0.0,0.0,79,0.00,,,0.00,WUHU216WMR968SP,2013-01-13 06:23:00,
2013-01-13 01:28:00,34.9,29.1,30.05,North,0,0.0,0.0,79,0.00,,,0.00,WUHU216WMR968SP,2013-01-13 06:28:00,
2013-01-13 01:33:00,34.9,29.1,30.05,North,0,0.0,0.0,79,0.00,,,0.00,WUHU216WMR968SP,2013-01-13 06:33:00,
2013-01-13 01:38:00,34.9,29.1,30.05,North,0,0.0,0.0,79,0.00,,,0.00,WUHU216WMR968SP,2013-01-13 06:38:00,
2013-01-13 01:43:00,34.9,29.1,30.05,North,0,0.0,0.0,79,0.00,,,0.00,WUHU216WMR968SP,2013-01-13 06:43:00,
2013-01-13 01:48:00,34.9,29.1,30.05,North,0,0.0,0.0,79,0.00,,,0.00,WUHU216WMR968SP,2013-01-13 06:48:00,
2013-01-13 01:53:00,34.7,28.9,30.05,North,0,0.0,0.0,79,0.00,,,0.00,WUHU216WMR968SP,2013-01-13 06:53:00,
2013-01-13 01:58:00,34.7,28.9,30.05,North,0,0.0,0.0,79,0.00,,,0.00,WUHU216WMR968SP,2013-01-13 06:58:00,
2013-01-13 02:03:00,34.5,28.7,30.05,North,0,0.0,0.0,79,0.00,,,0.00,WUHU216WMR968SP,2013-01-13 07:03:00,
2013-01-13 02:08:00,34.5,29.0,30.05,North,0,0.0,0.0,80,0.00,,,0.00,WUHU216WMR968SP,2013-01-13 07:08:00,
2013-01-13 02:13:00,34.7,29.2,30.05,North,0,0.0,0.0,80,0.00,,,0.00,WUHU216WMR968SP,2013-01-13 07:13:00,
2013-01-13 02:18:00,34.7,29.2,30.05,North,0,0.0,0.0,80,0.00,,,0.00,WUHU216WMR968SP,2013-01-13 07:18:00,
2013-01-13 02:23:00,34.7,29.2,30.05,North,0,0.0,0.0,80,0.00,,,0.00,WUHU216WMR968SP,2013-01-13 07:23:00,
2013-01-13 02:28:00,34.9,29.7,30.05,North,0,0.0,0.0,81,0.00,,,0.00,WUHU216WMR968SP,2013-01-13 07:28:00,
2013-01-13 02:33:00,34.9,29.7,30.05,North,0,0.0,0.0,81,0.00,,,0.00,WUHU216WMR968SP,2013-01-13 07:33:00,
2013-01-13 02:38:00,34.5,29.0,30.05,North,0,0.0,0.0,80,0.00,,,0.00,WUHU216WMR968SP,2013-01-13 07:38:00,
2013-01-13 02:43:00,34.7,29.5,30.05,North,0,0.0,0.0,81,0.00,,,0.00,WUHU216WMR968SP,2013-01-13 07:43:00,
2013-01-13 02:48:00,34.7,29.5,30.05,North,0,0.0,0.0,81,0.00,,,0.00,WUHU216WMR968SP,2013-01-13 07:48:00,
2013-01-13 02:53:00,34.7,29.5,30.05,North,0,0.0,0.0,81,0.00,,,0.00,WUHU216WMR968SP,2013-01-13 07:53:00,
2013-01-13 02:58:00,34.7,29.5,30.05,North,0,0.0,0.0,81,0.00,,,0.00,WUHU216WMR968SP,2013-01-13 07:58:00,
2013-01-13 03:03:00,34.7,29.5,30.05,North,0,0.0,0.0,81,0.00,,,0.00,WUHU216WMR968SP,2013-01-13 08:03:00,
2013-01-13 03:08:00,34.9,29.7,30.05,North,0,0.0,0.0,81,0.00,,,0.00,WUHU216WMR968SP,2013-01-13 08:08:00,
2013-01-13 03:13:00,34.9,29.7,30.05,North,0,0.0,0.0,81,0.00,,,0.00,WUHU216WMR968SP,2013-01-13 08:13:00,
2013-01-13 03:18:00,34.9,29.7,30.05,North,0,0.0,0.0,81,0.00,,,0.00,WUHU216WMR968SP,2013-01-13 08:18:00,
2013-01-13 03:23:00,34.9,29.7,30.05,North,0,0.0,0.0,81,0.00,,,0.00,WUHU216WMR968SP,2013-01-13 08:23:00,
2013-01-13 03:28:00,34.9,29.7,30.05,North,0,0.0,0.0,81,0.00,,,0.00,WUHU216WMR968SP,2013-01-13 08:28:00,
2013-01-13 03:33:00,34.7,29.5,30.05,North,0,0.0,0.0,81,0.00,,,0.00,WUHU216WMR968SP,2013-01-13 08:33:00,
2013-01-13 03:38:00,34.7,29.5,30.05,North,0,0.0,0.0,81,0.00,,,0.00,WUHU216WMR968SP,2013-01-13 08:38:00,
2013-01-13 03:43:00,34.7,29.5,30.05,North,0,0.0,0.0,81,0.00,,,0.00,WUHU216WMR968SP,2013-01-13 08:43:00,
2013-01-13 03:48:00,34.5,29.3,30.05,North,0,0.0,0.0,81,0.00,,,0.00,WUHU216WMR968SP,2013-01-13 08:48:00,
2013-01-13 03:53:00,34.3,29.1,30.05,North,0,0.0,0.0,81,0.00,,,0.00,WUHU216WMR968SP,2013-01-13 08:53:00,
2013-01-13 03:58:00,34.3,29.1,30.05,North,0,0.0,0.0,81,0.00,,,0.00,WUHU216WMR968SP,2013-01-13 08:58:00,
2013-01-13 04:03:00,34.5,29.6,30.05,North,0,0.0,0.0,82,0.00,,,0.00,WUHU216WMR968SP,2013-01-13 09:03:00,
2013-01-13 04:08:00,34.5,29.6,30.02,North,0,0.0,0.0,82,0.00,,,0.00,WUHU216WMR968SP,2013-01-13 09:08:00,
2013-01-13 04:13:00,34.5,29.6,30.02,North,0,0.0,0.0,82,0.00,,,0.00,WUHU216WMR968SP,2013-01-13 09:13:00,
2013-01-13 04:18:00,34.5,29.9,30.02,North,0,0.0,0.0,83,0.00,,,0.00,WUHU216WMR968SP,2013-01-13 09:18:00,
2013-01-13 04:23:00,34.5,29.9,30.02,North,0,0.0,0.0,83,0.00,,,0.00,WUHU216WMR968SP,2013-01-13 09:23:00,
2013-01-13 04:28:00,34.5,30.1,30.02,North,0,0.0,0.0,84,0.00,,,0.00,WUHU216WMR968SP,2013-01-13 09:28:00,
2013-01-13 04:33:00,34.5,30.1,30.02,North,0,0.0,0.0,84,0.00,,,0.00,WUHU216WMR968SP,2013-01-13 09:33:00,
2013-01-13 04:38:00,34.5,30.4,30.02,North,0,0.0,0.0,85,0.00,,,0.00,WUHU216WMR968SP,2013-01-13 09:38:00,
2013-01-13 04:43:00,34.5,30.7,30.02,North,0,0.0,0.0,86,0.00,,,0.00,WUHU216WMR968SP,2013-01-13 09:43:00,
2013-01-13 04:48:00,34.5,30.7,30.02,North,0,0.0,0.0,86,0.00,,,0.00,WUHU216WMR968SP,2013-01-13 09:48:00,
2013-01-13 04:53:00,34.5,31.0,30.02,North,0,0.0,0.0,87,0.00,,,0.00,WUHU216WMR968SP,2013-01-13 09:53:00,
2013-01-13 04:58:00,34.3,30.8,30.02,North,0,0.0,0.0,87,0.00,,,0.00,WUHU216WMR968SP,2013-01-13 09:58:00,
2013-01-13 05:03:00,34.3,30.8,30.02,North,0,0.0,0.0,87,0.00,,,0.00,WUHU216WMR968SP,2013-01-13 10:03:00,
2013-01-13 05:08:00,34.3,30.8,30.02,North,0,0.0,0.0,87,0.00,,,0.00,WUHU216WMR968SP,2013-01-13 10:08:00,
2013-01-13 05:13:00,34.3,30.8,30.02,North,0,0.0,0.0,87,0.00,,,0.00,WUHU216WMR968SP,2013-01-13 10:13:00,
2013-01-13 05:18:00,34.3,31.1,30.02,North,0,0.0,0.0,88,0.00,,,0.00,WUHU216WMR968SP,2013-01-13 10:18:00,
2013-01-13 05:23:00,34.3,31.1,30.02,North,0,0.0,0.0,88,0.00,,,0.00,WUHU216WMR968SP,2013-01-13 10:23:00,
2013-01-13 05:28:00,34.3,31.1,30.02,North,0,0.0,0.0,88,0.00,,,0.00,WUHU216WMR968SP,2013-01-13 10:28:00,
2013-01-13 05:33:00,34.5,31.3,30.02,North,0,0.0,0.0,88,0.00,,,0.00,WUHU216WMR968SP,2013-01-13 10:33:00,
2013-01-13 05:38:00,34.3,31.4,29.99,North,0,0.0,0.0,89,0.00,,,0.00,WUHU216WMR968SP,2013-01-13 10:38:00,
2013-01-13 05:43:00,34.5,31.5,29.99,North,0,0.0,0.0,89,0.00,,,0.00,WUHU216WMR968SP,2013-01-13 10:43:00,
2013-01-13 05:48:00,34.3,31.4,29.99,North,0,0.0,0.0,89,0.00,,,0.00,WUHU216WMR968SP,2013-01-13 10:48:00,
2013-01-13 05:53:00,34.3,31.4,30.02,North,0,0.0,0.0,89,0.00,,,0.00,WUHU216WMR968SP,2013-01-13 10:53:00,
2013-01-13 05:58:00,34.3,31.4,30.02,North,0,0.0,0.0,89,0.00,,,0.00,WUHU216WMR968SP,2013-01-13 10:58:00,
2013-01-13 06:03:00,34.5,31.5,30.02,North,0,0.0,0.0,89,0.00,,,0.00,WUHU216WMR968SP,2013-01-13 11:03:00,
2013-01-13 06:08:00,34.3,31.4,30.02,North,0,0.0,0.0,89,0.00,,,0.00,WUHU216WMR968SP,2013-01-13 11:08:00,
2013-01-13 06:13:00,34.3,31.4,30.02,North,0,0.0,0.0,89,0.00,,,0.00,WUHU216WMR968SP,2013-01-13 11:13:00,
2013-01-13 06:18:00,34.3,32.0,30.02,North,0,0.0,0.0,90,0.00,,,0.00,WUHU216WMR968SP,2013-01-13 11:18:00,
2013-01-13 06:23:00,34.3,32.0,30.02,North,0,0.0,0.0,90,0.00,,,0.00,WUHU216WMR968SP,2013-01-13 11:23:00,
2013-01-13 06:28:00,34.3,32.0,30.02,North,0,0.0,0.0,90,0.00,,,0.00,WUHU216WMR968SP,2013-01-13 11:28:00,
2013-01-13 06:33:00,34.2,32.0,30.02,North,0,0.0,0.0,90,0.00,,,0.00,WUHU216WMR968SP,2013-01-13 11:33:00,
2013-01-13 06:38:00,34.3,32.0,30.02,North,0,0.0,0.0,90,0.00,,,0.00,WUHU216WMR968SP,2013-01-13 11:38:00,
2013-01-13 06:43:00,34.3,32.0,30.02,North,0,0.0,0.0,91,0.00,,,0.00,WUHU216WMR968SP,2013-01-13 11:43:00,
2013-01-13 06:48:00,34.3,32.0,30.02,North,0,0.0,0.0,91,0.00,,,0.00,WUHU216WMR968SP,2013-01-13 11:48:00,
2013-01-13 06:53:00,34.3,32.0,30.02,North,0,0.0,0.0,92,0.00,,,0.00,WUHU216WMR968SP,2013-01-13 11:53:00,
2013-01-13 06:58:00,34.3,32.0,30.02,North,0,0.0,0.0,92,0.00,,,0.00,WUHU216WMR968SP,2013-01-13 11:58:00,
2013-01-13 07:03:00,34.3,32.0,30.02,North,0,0.0,0.0,92,0.00,,,0.00,WUHU216WMR968SP,2013-01-13 12:03:00,
2013-01-13 07:08:00,34.3,32.0,30.05,North,0,0.0,0.0,92,0.00,,,0.00,WUHU216WMR968SP,2013-01-13 12:08:00,
2013-01-13 07:13:00,34.3,32.0,30.05,North,0,0.0,0.0,92,0.00,,,0.00,WUHU216WMR968SP,2013-01-13 12:13:00,
2013-01-13 07:18:00,34.3,32.0,30.05,North,0,0.0,0.0,92,0.00,,,0.00,WUHU216WMR968SP,2013-01-13 12:18:00,
2013-01-13 07:23:00,34.5,32.0,30.02,North,0,0.0,0.0,92,0.00,,,0.00,WUHU216WMR968SP,2013-01-13 12:23:00,
2013-01-13 07:28:00,34.5,32.0,30.02,North,0,0.0,0.0,92,0.00,,,0.00,WUHU216WMR968SP,2013-01-13 12:28:00,
2013-01-13 07:33:00,34.5,32.0,30.02,North,0,0.0,0.0,92,0.00,,,0.00,WUHU216WMR968SP,2013-01-13 12:33:00,
2013-01-13 07:38:00,34.5,32.0,30.05,North,0,0.0,0.0,92,0.00,,,0.00,WUHU216WMR968SP,2013-01-13 12:38:00,
2013-01-13 07:43:00,34.5,32.0,30.05,North,0,0.0,0.0,92,0.00,,,0.00,WUHU216WMR968SP,2013-01-13 12:43:00,
2013-01-13 07:48:00,34.7,33.8,30.05,North,0,0.0,0.0,92,0.00,,,0.00,WUHU216WMR968SP,2013-01-13 12:48:00,
2013-01-13 07:53:00,34.9,33.8,30.05,North,0,0.0,0.0,93,0.00,,,0.00,WUHU216WMR968SP,2013-01-13 12:53:00,
2013-01-13 07:58:00,34.9,33.8,30.05,North,0,0.0,0.0,93,0.00,,,0.00,WUHU216WMR968SP,2013-01-13 12:58:00,
2013-01-13 08:03:00,34.9,33.8,30.05,North,0,0.0,0.0,93,0.00,,,0.00,WUHU216WMR968SP,2013-01-13 13:03:00,
2013-01-13 08:08:00,34.9,33.8,30.05,North,0,0.0,0.0,93,0.00,,,0.00,WUHU216WMR968SP,2013-01-13 13:08:00,
2013-01-13 08:13:00,35.1,33.8,30.05,North,0,0.0,0.0,93,0.00,,,0.00,WUHU216WMR968SP,2013-01-13 13:13:00,
2013-01-13 08:18:00,35.2,33.8,30.05,North,0,0.0,0.0,93,0.00,,,0.00,WUHU216WMR968SP,2013-01-13 13:18:00,
2013-01-13 08:23:00,35.2,33.8,30.05,North,0,0.0,0.0,93,0.00,,,0.00,WUHU216WMR968SP,2013-01-13 13:23:00,
2013-01-13 08:28:00,35.2,33.8,30.05,North,0,0.0,0.0,93,0.00,,,0.00,WUHU216WMR968SP,2013-01-13 13:28:00,
2013-01-13 08:33:00,35.4,33.8,30.05,North,0,0.0,0.0,93,0.00,,,0.00,WUHU216WMR968SP,2013-01-13 13:33:00,
2013-01-13 08:38:00,35.4,33.8,30.05,North,0,0.0,0.0,93,0.00,,,0.00,WUHU216WMR968SP,2013-01-13 13:38:00,
2013-01-13 08:43:00,35.4,33.8,30.05,North,0,0.0,0.0,93,0.00,,,0.00,WUHU216WMR968SP,2013-01-13 13:43:00,
2013-01-13 08:48:00,35.6,33.8,30.05,North,0,0.0,0.0,93,0.00,,,0.00,WUHU216WMR968SP,2013-01-13 13:48:00,
2013-01-13 08:53:00,35.6,33.8,30.05,North,0,0.0,0.0,93,0.00,,,0.00,WUHU216WMR968SP,2013-01-13 13:53:00,
2013-01-13 08:58:00,35.8,33.8,30.05,North,0,0.0,0.0,93,0.00,,,0.00,WUHU216WMR968SP,2013-01-13 13:58:00,
2013-01-13 09:03:00,35.8,33.8,30.05,North,0,0.0,0.0,93,0.00,,,0.00,WUHU216WMR968SP,2013-01-13 14:03:00,
2013-01-13 09:08:00,35.8,33.8,30.05,North,0,0.0,0.0,93,0.00,,,0.00,WUHU216WMR968SP,2013-01-13 14:08:00,
2013-01-13 09:13:00,36.0,33.8,30.05,North,0,0.0,0.0,93,0.00,,,0.00,WUHU216WMR968SP,2013-01-13 14:13:00,
2013-01-13 09:18:00,36.1,33.8,30.05,North,0,0.0,0.0,93,0.00,,,0.00,WUHU216WMR968SP,2013-01-13 14:18:00,
2013-01-13 09:23:00,36.3,33.8,30.05,North,0,0.0,0.0,93,0.00,,,0.00,WUHU216WMR968SP,2013-01-13 14:23:00,
2013-01-13 09:28:00,36.3,33.8,30.05,North,0,0.0,0.0,93,0.00,,,0.00,WUHU216WMR968SP,2013-01-13 14:28:00,
2013-01-13 09:33:00,36.5,35.6,30.05,North,0,0.0,0.0,93,0.00,,,0.00,WUHU216WMR968SP,2013-01-13 14:33:00,
2013-01-13 09:38:00,36.9,35.6,30.05,North,0,0.0,0.0,93,0.00,,,0.00,WUHU216WMR968SP,2013-01-13 14:38:00,
2013-01-13 09:43:00,37.0,35.6,30.05,North,0,0.0,0.0,93,0.00,,,0.00,WUHU216WMR968SP,2013-01-13 14:43:00,
2013-01-13 09:48:00,37.4,35.6,30.05,North,0,0.0,0.0,93,0.00,,,0.00,WUHU216WMR968SP,2013-01-13 14:48:00,
2013-01-13 09:53:00,37.4,35.6,30.05,North,0,0.0,0.0,93,0.00,,,0.00,WUHU216WMR968SP,2013-01-13 14:53:00,
2013-01-13 09:58:00,37.4,35.6,30.05,North,0,0.0,0.0,92,0.00,,,0.00,WUHU216WMR968SP,2013-01-13 14:58:00,
2013-01-13 10:03:00,37.6,35.6,30.05,North,0,0.0,0.0,93,0.00,,,0.00,WUHU216WMR968SP,2013-01-13 15:03:00,
2013-01-13 10:08:00,37.8,35.6,30.05,North,0,0.0,0.0,93,0.00,,,0.00,WUHU216WMR968SP,2013-01-13 15:08:00,
2013-01-13 10:13:00,37.9,35.6,30.05,North,0,0.0,0.0,93,0.00,,,0.00,WUHU216WMR968SP,2013-01-13 15:13:00,
2013-01-13 10:18:00,38.1,35.6,30.05,North,0,0.0,0.0,93,0.00,,,0.00,WUHU216WMR968SP,2013-01-13 15:18:00,
2013-01-13 10:23:00,37.9,35.6,30.05,North,0,0.0,0.0,93,0.00,,,0.00,WUHU216WMR968SP,2013-01-13 15:23:00,
2013-01-13 10:28:00,37.9,35.6,30.05,North,0,0.0,0.0,92,0.00,,,0.00,WUHU216WMR968SP,2013-01-13 15:28:00,
2013-01-13 10:33:00,37.9,35.6,30.05,North,0,0.0,0.0,92,0.00,,,0.00,WUHU216WMR968SP,2013-01-13 15:33:00,
2013-01-13 10:38:00,37.9,35.6,30.05,North,0,0.0,0.0,92,0.00,,,0.00,WUHU216WMR968SP,2013-01-13 15:38:00,
2013-01-13 10:43:00,37.9,35.6,30.05,North,0,0.0,0.0,92,0.00,,,0.00,WUHU216WMR968SP,2013-01-13 15:43:00,
2013-01-13 10:48:00,37.9,35.6,30.05,North,0,0.0,0.0,92,0.00,,,0.00,WUHU216WMR968SP,2013-01-13 15:48:00,
2013-01-13 10:53:00,38.1,35.6,30.05,North,0,0.0,0.0,92,0.00,,,0.00,WUHU216WMR968SP,2013-01-13 15:53:00,
2013-01-13 10:58:00,38.3,37.4,30.05,North,0,0.0,0.0,92,0.00,,,0.00,WUHU216WMR968SP,2013-01-13 15:58:00,
2013-01-13 11:03:00,38.5,37.4,30.05,North,0,0.0,0.0,92,0.00,,,0.00,WUHU216WMR968SP,2013-01-13 16:03:00,
2013-01-13 11:08:00,38.5,37.4,30.05,North,0,0.0,0.0,91,0.00,,,0.00,WUHU216WMR968SP,2013-01-13 16:08:00,
2013-01-13 11:13:00,38.3,37.4,30.05,North,0,0.0,0.0,91,0.00,,,0.00,WUHU216WMR968SP,2013-01-13 16:13:00,
2013-01-13 11:18:00,38.3,37.4,30.05,North,0,0.0,0.0,91,0.00,,,0.00,WUHU216WMR968SP,2013-01-13 16:18:00,
2013-01-13 11:23:00,38.7,37.4,30.02,North,0,0.0,0.0,91,0.00,,,0.00,WUHU216WMR968SP,2013-01-13 16:23:00,
2013-01-13 11:28:00,38.7,37.4,30.02,North,0,0.0,0.0,91,0.00,,,0.00,WUHU216WMR968SP,2013-01-13 16:28:00,
2013-01-13 11:33:00,39.2,37.4,30.02,North,0,0.0,0.0,91,0.00,,,0.00,WUHU216WMR968SP,2013-01-13 16:33:00,
2013-01-13 11:38:00,39.4,37.4,30.02,North,0,0.0,0.0,91,0.00,,,0.00,WUHU216WMR968SP,2013-01-13 16:38:00,
2013-01-13 11:43:00,39.2,37.4,30.02,North,0,0.0,0.0,90,0.00,,,0.00,WUHU216WMR968SP,2013-01-13 16:43:00,
2013-01-13 11:48:00,39.0,37.4,30.02,North,0,0.0,0.0,90,0.00,,,0.00,WUHU216WMR968SP,2013-01-13 16:48:00,
2013-01-13 11:53:00,39.0,35.6,30.02,North,0,0.0,0.0,89,0.00,,,0.00,WUHU216WMR968SP,2013-01-13 16:53:00,
2013-01-13 11:58:00,38.8,35.6,30.02,North,0,0.0,0.0,89,0.00,,,0.00,WUHU216WMR968SP,2013-01-13 16:58:00,
2013-01-13 12:03:00,39.2,35.6,30.02,North,0,0.0,0.0,88,0.00,,,0.00,WUHU216WMR968SP,2013-01-13 17:03:00,
2013-01-13 12:08:00,39.4,35.6,29.99,North,0,0.0,0.0,88,0.00,,,0.00,WUHU216WMR968SP,2013-01-13 17:08:00,
2013-01-13 12:13:00,39.4,35.6,29.99,North,0,0.0,0.0,88,0.00,,,0.00,WUHU216WMR968SP,2013-01-13 17:13:00,
2013-01-13 12:18:00,39.4,35.6,29.99,North,0,0.0,0.0,88,0.00,,,0.00,WUHU216WMR968SP,2013-01-13 17:18:00,
2013-01-13 12:23:00,39.6,35.6,29.99,North,0,0.0,0.0,88,0.00,,,0.00,WUHU216WMR968SP,2013-01-13 17:23:00,
2013-01-13 12:28:00,39.7,35.6,29.99,North,0,0.0,0.0,88,0.00,,,0.00,WUHU216WMR968SP,2013-01-13 17:28:00,
2013-01-13 12:33:00,39.9,35.6,29.99,North,0,0.0,0.0,88,0.00,,,0.00,WUHU216WMR968SP,2013-01-13 17:33:00,
2013-01-13 12:38:00,39.9,35.6,29.99,North,0,0.0,0.0,88,0.00,,,0.00,WUHU216WMR968SP,2013-01-13 17:38:00,
2013-01-13 12:43:00,39.9,35.6,29.99,North,0,0.0,0.0,87,0.00,,,0.00,WUHU216WMR968SP,2013-01-13 17:43:00,
2013-01-13 12:48:00,39.9,35.6,29.99,North,0,0.0,0.0,87,0.00,,,0.00,WUHU216WMR968SP,2013-01-13 17:48:00,
2013-01-13 12:53:00,39.9,35.6,29.99,North,0,0.0,0.0,87,0.00,,,0.00,WUHU216WMR968SP,2013-01-13 17:53:00,
2013-01-13 12:58:00,39.9,35.6,29.99,North,0,0.0,0.0,87,0.00,,,0.00,WUHU216WMR968SP,2013-01-13 17:58:00,
2013-01-13 13:03:00,39.7,35.6,29.99,North,0,0.0,0.0,87,0.00,,,0.00,WUHU216WMR968SP,2013-01-13 18:03:00,
2013-01-13 13:08:00,39.7,35.6,29.99,North,0,0.0,0.0,86,0.00,,,0.00,WUHU216WMR968SP,2013-01-13 18:08:00,
2013-01-13 13:13:00,39.9,35.6,29.99,North,0,0.0,0.0,86,0.00,,,0.00,WUHU216WMR968SP,2013-01-13 18:13:00,
2013-01-13 13:18:00,39.9,35.6,29.99,North,0,0.0,0.0,85,0.00,,,0.00,WUHU216WMR968SP,2013-01-13 18:18:00,
2013-01-13 13:23:00,39.9,35.6,29.99,North,0,0.0,0.0,85,0.00,,,0.00,WUHU216WMR968SP,2013-01-13 18:23:00,
2013-01-13 13:28:00,39.7,35.6,29.99,North,0,0.0,0.0,84,0.00,,,0.00,WUHU216WMR968SP,2013-01-13 18:28:00,
2013-01-13 13:33:00,39.9,33.8,29.99,North,0,0.0,0.0,83,0.00,,,0.00,WUHU216WMR968SP,2013-01-13 18:33:00,
2013-01-13 13:38:00,40.3,37.4,29.96,North,0,0.0,0.0,84,0.00,,,0.00,WUHU216WMR968SP,2013-01-13 18:38:00,
2013-01-13 13:43:00,40.3,37.4,29.96,North,0,0.0,0.0,84,0.00,,,0.00,WUHU216WMR968SP,2013-01-13 18:43:00,
2013-01-13 13:48:00,40.3,35.6,29.96,North,0,0.0,0.0,83,0.00,,,0.00,WUHU216WMR968SP,2013-01-13 18:48:00,
2013-01-13 13:53:00,40.1,35.6,29.96,North,0,0.0,0.0,83,0.00,,,0.00,WUHU216WMR968SP,2013-01-13 18:53:00,
2013-01-13 13:58:00,40.3,35.6,29.96,North,0,0.0,0.0,83,0.00,,,0.00,WUHU216WMR968SP,2013-01-13 18:58:00,
2013-01-13 14:03:00,40.1,35.6,29.96,North,0,0.0,0.0,82,0.00,,,0.00,WUHU216WMR968SP,2013-01-13 19:03:00,
2013-01-13 14:08:00,39.9,33.8,29.96,North,0,0.0,0.0,82,0.00,,,0.00,WUHU216WMR968SP,2013-01-13 19:08:00,
2013-01-13 14:13:00,39.9,33.8,29.96,North,0,0.0,0.0,82,0.00,,,0.00,WUHU216WMR968SP,2013-01-13 19:13:00,
2013-01-13 14:18:00,39.9,33.8,29.96,North,0,0.0,0.0,82,0.00,,,0.00,WUHU216WMR968SP,2013-01-13 19:18:00,
2013-01-13 14:23:00,39.9,33.8,29.96,North,0,0.0,0.0,82,0.00,,,0.00,WUHU216WMR968SP,2013-01-13 19:23:00,
2013-01-13 14:28:00,39.9,33.8,29.96,North,0,0.0,0.0,82,0.00,,,0.00,WUHU216WMR968SP,2013-01-13 19:28:00,
2013-01-13 14:33:00,39.7,33.8,29.96,North,0,0.0,0.0,82,0.00,,,0.00,WUHU216WMR968SP,2013-01-13 19:33:00,
2013-01-13 14:38:00,39.6,33.8,29.96,North,0,0.0,0.0,81,0.00,,,0.00,WUHU216WMR968SP,2013-01-13 19:38:00,
2013-01-13 14:43:00,39.6,33.8,29.96,North,0,0.0,0.0,81,0.00,,,0.00,WUHU216WMR968SP,2013-01-13 19:43:00,
2013-01-13 14:48:00,39.7,33.8,29.96,North,0,0.0,0.0,81,0.00,,,0.00,WUHU216WMR968SP,2013-01-13 19:48:00,
2013-01-13 14:53:00,39.7,33.8,29.96,North,0,0.0,0.0,81,0.00,,,0.00,WUHU216WMR968SP,2013-01-13 19:53:00,
2013-01-13 14:58:00,39.7,33.8,29.96,North,0,0.0,0.0,80,0.00,,,0.00,WUHU216WMR968SP,2013-01-13 19:58:00,
2013-01-13 15:03:00,39.2,33.8,29.96,North,0,0.0,0.0,80,0.00,,,0.00,WUHU216WMR968SP,2013-01-13 20:03:00,
2013-01-13 15:08:00,39.2,33.8,29.96,North,0,0.0,0.0,79,0.00,,,0.00,WUHU216WMR968SP,2013-01-13 20:08:00,
2013-01-13 15:13:00,39.0,33.8,29.96,North,0,0.0,0.0,79,0.00,,,0.00,WUHU216WMR968SP,2013-01-13 20:13:00,
2013-01-13 15:18:00,38.8,33.8,29.96,North,0,0.0,0.0,80,0.00,,,0.00,WUHU216WMR968SP,2013-01-13 20:18:00,
2013-01-13 15:23:00,39.0,33.8,29.93,North,0,0.0,0.0,81,0.00,,,0.00,WUHU216WMR968SP,2013-01-13 20:23:00,
2013-01-13 15:28:00,39.6,33.8,29.93,North,0,0.0,0.0,82,0.00,,,0.00,WUHU216WMR968SP,2013-01-13 20:28:00,
2013-01-13 15:33:00,39.9,33.8,29.93,North,0,0.0,0.0,83,0.00,,,0.00,WUHU216WMR968SP,2013-01-13 20:33:00,
2013-01-13 15:38:00,39.7,33.8,29.93,North,0,0.0,0.0,83,0.00,,,0.00,WUHU216WMR968SP,2013-01-13 20:38:00,
2013-01-13 15:43:00,39.9,35.6,29.93,North,0,0.0,0.0,85,0.00,,,0.00,WUHU216WMR968SP,2013-01-13 20:43:00,
2013-01-13 15:48:00,39.6,35.6,29.93,North,0,0.0,0.0,85,0.00,,,0.00,WUHU216WMR968SP,2013-01-13 20:48:00,
2013-01-13 15:53:00,39.4,35.6,29.93,North,0,0.0,0.0,85,0.00,,,0.00,WUHU216WMR968SP,2013-01-13 20:53:00,
2013-01-13 15:58:00,38.8,35.6,29.93,North,0,0.0,0.0,85,0.00,,,0.00,WUHU216WMR968SP,2013-01-13 20:58:00,
2013-01-13 16:03:00,38.8,35.6,29.93,North,0,0.0,0.0,86,0.00,,,0.00,WUHU216WMR968SP,2013-01-13 21:03:00,
2013-01-13 16:08:00,38.5,35.6,29.93,North,0,0.0,0.0,86,0.00,,,0.00,WUHU216WMR968SP,2013-01-13 21:08:00,
2013-01-13 16:13:00,38.1,33.8,29.93,North,0,0.0,0.0,85,0.00,,,0.00,WUHU216WMR968SP,2013-01-13 21:13:00,
2013-01-13 16:18:00,37.9,33.8,29.93,North,0,0.0,0.0,85,0.00,,,0.00,WUHU216WMR968SP,2013-01-13 21:18:00,
2013-01-13 16:23:00,38.1,33.8,29.93,North,0,0.0,0.0,85,0.00,,,0.00,WUHU216WMR968SP,2013-01-13 21:23:00,
2013-01-13 16:28:00,37.9,33.8,29.93,North,0,0.0,0.0,85,0.00,,,0.00,WUHU216WMR968SP,2013-01-13 21:28:00,
2013-01-13 16:33:00,37.9,33.8,29.93,North,0,0.0,0.0,85,0.00,,,0.00,WUHU216WMR968SP,2013-01-13 21:33:00,
2013-01-13 16:38:00,37.4,33.8,29.93,North,0,0.0,0.0,84,0.00,,,0.00,WUHU216WMR968SP,2013-01-13 21:38:00,
2013-01-13 16:43:00,37.2,33.8,29.93,North,0,0.0,0.0,84,0.00,,,0.00,WUHU216WMR968SP,2013-01-13 21:43:00,
2013-01-13 16:48:00,37.4,33.8,29.93,North,0,0.0,0.0,84,0.00,,,0.00,WUHU216WMR968SP,2013-01-13 21:48:00,
2013-01-13 16:53:00,37.4,33.8,29.93,North,0,0.0,0.0,84,0.00,,,0.00,WUHU216WMR968SP,2013-01-13 21:53:00,
2013-01-13 16:58:00,37.2,33.8,29.93,North,0,0.0,0.0,85,0.00,,,0.00,WUHU216WMR968SP,2013-01-13 21:58:00,
2013-01-13 17:03:00,37.0,33.8,29.93,North,0,0.0,0.0,85,0.00,,,0.00,WUHU216WMR968SP,2013-01-13 22:03:00,
2013-01-13 17:08:00,37.0,33.8,29.93,North,0,0.0,0.0,85,0.00,,,0.00,WUHU216WMR968SP,2013-01-13 22:08:00,
2013-01-13 17:13:00,36.9,33.8,29.93,North,0,0.0,0.0,85,0.00,,,0.00,WUHU216WMR968SP,2013-01-13 22:13:00,
2013-01-13 17:18:00,37.0,33.8,29.93,North,0,0.0,0.0,85,0.00,,,0.00,WUHU216WMR968SP,2013-01-13 22:18:00,
2013-01-13 17:23:00,36.9,33.8,29.93,North,0,0.0,0.0,85,0.00,,,0.00,WUHU216WMR968SP,2013-01-13 22:23:00,
2013-01-13 17:28:00,37.0,33.8,29.93,North,0,0.0,0.0,86,0.00,,,0.00,WUHU216WMR968SP,2013-01-13 22:28:00,
2013-01-13 17:33:00,36.9,33.8,29.93,North,0,0.0,0.0,86,0.00,,,0.00,WUHU216WMR968SP,2013-01-13 22:33:00,
2013-01-13 17:38:00,36.9,33.8,29.93,North,0,0.0,0.0,86,0.00,,,0.00,WUHU216WMR968SP,2013-01-13 22:38:00,
2013-01-13 17:43:00,37.0,33.8,29.93,North,0,0.0,0.0,86,0.00,,,0.00,WUHU216WMR968SP,2013-01-13 22:43:00,
2013-01-13 17:48:00,36.7,33.8,29.93,North,0,0.0,0.0,86,0.00,,,0.00,WUHU216WMR968SP,2013-01-13 22:48:00,
2013-01-13 17:53:00,36.9,33.8,29.93,North,0,0.0,0.0,86,0.00,,,0.00,WUHU216WMR968SP,2013-01-13 22:53:00,
2013-01-13 17:58:00,36.9,33.8,29.93,North,0,0.0,0.0,86,0.00,,,0.00,WUHU216WMR968SP,2013-01-13 22:58:00,
2013-01-13 18:03:00,36.7,33.8,29.93,North,0,0.0,0.0,86,0.00,,,0.00,WUHU216WMR968SP,2013-01-13 23:03:00,
2013-01-13 18:08:00,36.7,33.8,29.93,North,0,0.0,0.0,86,0.00,,,0.00,WUHU216WMR968SP,2013-01-13 23:08:00,
2013-01-13 18:13:00,36.7,33.8,29.93,North,0,0.0,0.0,86,0.00,,,0.00,WUHU216WMR968SP,2013-01-13 23:13:00,
2013-01-13 18:18:00,36.3,32.0,29.93,North,0,0.0,0.0,86,0.00,,,0.00,WUHU216WMR968SP,2013-01-13 23:18:00,
2013-01-13 18:23:00,36.3,32.0,29.93,North,0,0.0,0.0,86,0.00,,,0.00,WUHU216WMR968SP,2013-01-13 23:23:00,
2013-01-13 18:28:00,36.3,32.0,29.93,North,0,0.0,0.0,86,0.00,,,0.00,WUHU216WMR968SP,2013-01-13 23:28:00,
2013-01-13 18:33:00,36.1,32.0,29.93,North,0,0.0,0.0,86,0.00,,,0.00,WUHU216WMR968SP,2013-01-13 23:33:00,
2013-01-13 18:38:00,36.1,32.0,29.93,North,0,0.0,0.0,85,0.00,,,0.00,WUHU216WMR968SP,2013-01-13 23:38:00,
2013-01-13 18:43:00,36.3,32.0,29.93,North,0,0.0,0.0,85,0.00,,,0.00,WUHU216WMR968SP,2013-01-13 23:43:00,
2013-01-13 18:48:00,36.3,32.0,29.93,North,0,0.0,0.0,85,0.00,,,0.00,WUHU216WMR968SP,2013-01-13 23:48:00,
2013-01-13 18:53:00,36.3,32.0,29.93,North,0,0.0,0.0,85,0.00,,,0.00,WUHU216WMR968SP,2013-01-13 23:53:00,
2013-01-13 18:58:00,36.1,32.0,29.93,North,0,0.0,0.0,85,0.00,,,0.00,WUHU216WMR968SP,2013-01-13 23:58:00,
2013-01-13 19:03:00,36.3,32.0,29.93,North,0,0.0,0.0,85,0.00,,,0.00,WUHU216WMR968SP,2013-01-14 00:03:00,
2013-01-13 19:08:00,36.1,32.0,29.93,North,0,0.0,0.0,85,0.00,,,0.00,WUHU216WMR968SP,2013-01-14 00:08:00,
2013-01-13 19:13:00,36.3,32.0,29.93,North,0,0.0,0.0,85,0.00,,,0.00,WUHU216WMR968SP,2013-01-14 00:13:00,
2013-01-13 19:18:00,36.1,32.0,29.93,North,0,0.0,0.0,84,0.00,,,0.00,WUHU216WMR968SP,2013-01-14 00:18:00,
2013-01-13 19:23:00,35.8,32.0,29.90,North,0,0.0,0.0,84,0.00,,,0.00,WUHU216WMR968SP,2013-01-14 00:23:00,
2013-01-13 19:28:00,35.6,30.9,29.90,North,0,0.0,0.0,83,0.00,,,0.00,WUHU216WMR968SP,2013-01-14 00:28:00,
2013-01-13 19:33:00,36.0,32.0,29.90,North,0,0.0,0.0,84,0.00,,,0.00,WUHU216WMR968SP,2013-01-14 00:33:00,
2013-01-13 19:38:00,36.1,32.0,29.93,North,0,0.0,0.0,84,0.00,,,0.00,WUHU216WMR968SP,2013-01-14 00:38:00,
2013-01-13 19:43:00,36.1,32.0,29.93,North,0,0.0,0.0,84,0.00,,,0.00,WUHU216WMR968SP,2013-01-14 00:43:00,
2013-01-13 19:48:00,36.1,32.0,29.93,North,0,0.0,0.0,84,0.00,,,0.00,WUHU216WMR968SP,2013-01-14 00:48:00,
2013-01-13 19:53:00,36.1,32.0,29.93,North,0,0.0,0.0,84,0.00,,,0.00,WUHU216WMR968SP,2013-01-14 00:53:00,
2013-01-13 19:58:00,36.0,32.0,29.93,North,0,0.0,0.0,84,0.00,,,0.00,WUHU216WMR968SP,2013-01-14 00:58:00,
2013-01-13 20:03:00,36.1,32.0,29.93,North,0,0.0,0.0,84,0.00,,,0.00,WUHU216WMR968SP,2013-01-14 01:03:00,
2013-01-13 20:08:00,36.1,32.0,29.93,North,0,0.0,0.0,84,0.00,,,0.00,WUHU216WMR968SP,2013-01-14 01:08:00,
2013-01-13 20:13:00,36.0,31.3,29.93,North,0,0.0,0.0,83,0.00,,,0.00,WUHU216WMR968SP,2013-01-14 01:13:00,
2013-01-13 20:18:00,35.6,30.9,29.93,North,0,0.0,0.0,83,0.00,,,0.00,WUHU216WMR968SP,2013-01-14 01:18:00,
2013-01-13 20:23:00,35.6,30.9,29.93,North,0,0.0,0.0,83,0.00,,,0.00,WUHU216WMR968SP,2013-01-14 01:23:00,
2013-01-13 20:28:00,35.6,30.9,29.93,North,0,0.0,0.0,83,0.00,,,0.00,WUHU216WMR968SP,2013-01-14 01:28:00,
2013-01-13 20:33:00,35.6,30.9,29.93,North,0,0.0,0.0,83,0.00,,,0.00,WUHU216WMR968SP,2013-01-14 01:33:00,
2013-01-13 20:38:00,35.6,30.9,29.90,North,0,0.0,0.0,83,0.00,,,0.00,WUHU216WMR968SP,2013-01-14 01:38:00,
2013-01-13 20:43:00,35.6,30.9,29.90,North,0,0.0,0.0,83,0.00,,,0.00,WUHU216WMR968SP,2013-01-14 01:43:00,
2013-01-13 20:48:00,35.6,30.9,29.90,North,0,0.0,0.0,83,0.00,,,0.00,WUHU216WMR968SP,2013-01-14 01:48:00,
2013-01-13 20:53:00,35.8,31.1,29.93,North,0,0.0,0.0,83,0.00,,,0.00,WUHU216WMR968SP,2013-01-14 01:53:00,
2013-01-13 20:58:00,35.6,32.0,29.93,North,0,0.0,0.0,84,0.00,,,0.00,WUHU216WMR968SP,2013-01-14 01:58:00,
2013-01-13 21:03:00,35.6,32.0,29.93,North,0,0.0,0.0,84,0.00,,,0.00,WUHU216WMR968SP,2013-01-14 02:03:00,
2013-01-13 21:08:00,35.6,32.0,29.90,North,0,0.0,0.0,84,0.00,,,0.00,WUHU216WMR968SP,2013-01-14 02:08:00,
2013-01-13 21:13:00,35.6,32.0,29.90,North,0,0.0,0.0,84,0.00,,,0.00,WUHU216WMR968SP,2013-01-14 02:13:00,
2013-01-13 21:18:00,35.8,32.0,29.90,North,0,0.0,0.0,84,0.00,,,0.00,WUHU216WMR968SP,2013-01-14 02:18:00,
2013-01-13 21:23:00,35.6,32.0,29.90,North,0,0.0,0.0,84,0.00,,,0.00,WUHU216WMR968SP,2013-01-14 02:23:00,
2013-01-13 21:28:00,35.4,32.0,29.90,North,0,0.0,0.0,84,0.00,,,0.00,WUHU216WMR968SP,2013-01-14 02:28:00,
2013-01-13 21:33:00,35.6,32.0,29.90,North,0,0.0,0.0,84,0.00,,,0.00,WUHU216WMR968SP,2013-01-14 02:33:00,
2013-01-13 21:38:00,35.6,32.0,29.90,North,0,0.0,0.0,85,0.00,,,0.00,WUHU216WMR968SP,2013-01-14 02:38:00,
2013-01-13 21:43:00,35.4,32.0,29.90,North,0,0.0,0.0,85,0.00,,,0.00,WUHU216WMR968SP,2013-01-14 02:43:00,
2013-01-13 21:48:00,35.6,32.0,29.90,North,0,0.0,0.0,85,0.00,,,0.00,WUHU216WMR968SP,2013-01-14 02:48:00,
2013-01-13 21:53:00,35.4,32.0,29.90,North,0,0.0,0.0,86,0.00,,,0.00,WUHU216WMR968SP,2013-01-14 02:53:00,
2013-01-13 21:58:00,35.4,32.0,29.90,North,0,0.0,0.0,85,0.00,,,0.00,WUHU216WMR968SP,2013-01-14 02:58:00,
2013-01-13 22:03:00,35.2,32.0,29.90,North,0,0.0,0.0,86,0.00,,,0.00,WUHU216WMR968SP,2013-01-14 03:03:00,
2013-01-13 22:08:00,35.2,32.0,29.90,North,0,0.0,0.0,86,0.00,,,0.00,WUHU216WMR968SP,2013-01-14 03:08:00,
2013-01-13 22:13:00,35.2,32.0,29.90,North,0,0.0,0.0,86,0.00,,,0.00,WUHU216WMR968SP,2013-01-14 03:13:00,
2013-01-13 22:18:00,35.2,32.0,29.90,North,0,0.0,0.0,86,0.00,,,0.00,WUHU216WMR968SP,2013-01-14 03:18:00,
2013-01-13 22:23:00,35.4,32.0,29.90,North,0,0.0,0.0,86,0.00,,,0.00,WUHU216WMR968SP,2013-01-14 03:23:00,
2013-01-13 22:28:00,35.4,32.0,29.90,North,0,0.0,0.0,86,0.00,,,0.00,WUHU216WMR968SP,2013-01-14 03:28:00,
2013-01-13 22:33:00,35.4,32.0,29.90,North,0,0.0,0.0,86,0.00,,,0.00,WUHU216WMR968SP,2013-01-14 03:33:00,
2013-01-13 22:38:00,35.4,32.0,29.90,North,0,0.0,0.0,86,0.00,,,0.00,WUHU216WMR968SP,2013-01-14 03:38:00,
2013-01-13 22:43:00,35.6,32.0,29.90,North,0,0.0,0.0,86,0.00,,,0.00,WUHU216WMR968SP,2013-01-14 03:43:00,
2013-01-13 22:48:00,35.6,32.0,29.90,North,0,0.0,0.0,86,0.00,,,0.00,WUHU216WMR968SP,2013-01-14 03:48:00,
2013-01-13 22:53:00,35.6,32.0,29.90,North,0,0.0,0.0,85,0.00,,,0.00,WUHU216WMR968SP,2013-01-14 03:53:00,
2013-01-13 22:58:00,35.4,32.0,29.90,North,0,0.0,0.0,86,0.00,,,0.00,WUHU216WMR968SP,2013-01-14 03:58:00,
2013-01-13 23:04:00,35.4,32.0,29.90,North,0,0.0,0.0,86,0.00,,,0.00,WUHU216WMR968SP,2013-01-14 04:04:00,
2013-01-13 23:09:00,35.6,32.0,29.87,North,0,0.0,0.0,85,0.00,,,0.00,WUHU216WMR968SP,2013-01-14 04:09:00,
2013-01-13 23:14:00,35.6,32.0,29.87,North,0,0.0,0.0,85,0.00,,,0.00,WUHU216WMR968SP,2013-01-14 04:14:00,
2013-01-13 23:19:00,35.8,32.0,29.87,North,0,0.0,0.0,85,0.00,,,0.00,WUHU216WMR968SP,2013-01-14 04:19:00,
2013-01-13 23:24:00,35.8,32.0,29.90,North,0,0.0,0.0,85,0.00,,,0.00,WUHU216WMR968SP,2013-01-14 04:24:00,
2013-01-13 23:29:00,35.8,32.0,29.90,North,0,0.0,0.0,85,0.00,,,0.00,WUHU216WMR968SP,2013-01-14 04:29:00,
2013-01-13 23:34:00,35.8,32.0,29.90,North,0,0.0,0.0,85,0.00,,,0.00,WUHU216WMR968SP,2013-01-14 04:34:00,
2013-01-13 23:39:00,35.6,32.0,29.90,North,0,0.0,0.0,85,0.00,,,0.00,WUHU216WMR968SP,2013-01-14 04:39:00,
2013-01-13 23:44:00,35.6,32.0,29.90,North,0,0.0,0.0,85,0.00,,,0.00,WUHU216WMR968SP,2013-01-14 04:44:00,
2013-01-13 23:49:00,35.4,32.0,29.90,North,0,0.0,0.0,85,0.00,,,0.00,WUHU216WMR968SP,2013-01-14 04:49:00,
2013-01-13 23:54:00,35.4,32.0,29.90,North,0,0.0,0.0,85,0.00,,,0.00,WUHU216WMR968SP,2013-01-14 04:54:00,
2013-01-13 23:59:00,35.4,32.0,29.90,North,0,0.0,0.0,85,0.00,,,0.00,WUHU216WMR968SP,2013-01-14 04:59:00,